createdAt,value
2023-01-23T00:01:34.661Z,24.10
2023-01-23T00:04:01.513Z,23.07
2023-01-23T00:06:28.637Z,25.20
2023-01-23T00:08:56.660Z,25.77
2023-01-23T00:11:25.987Z,24.33
2023-01-23T00:13:52.972Z,25.47
2023-01-23T00:16:21.307Z,26.67
2023-01-23T00:18:48.190Z,27.00
2023-01-23T00:21:17.551Z,26.17
2023-01-23T00:23:47.129Z,26.90
2023-01-23T00:26:17.388Z,26.50
2023-01-23T00:28:44.797Z,26.87
2023-01-23T00:31:15.399Z,28.13
2023-01-23T00:33:43.387Z,28.40
2023-01-23T00:36:10.643Z,28.77
2023-01-23T00:38:38.054Z,27.50
2023-01-23T00:41:08.278Z,28.43
2023-01-23T00:43:35.007Z,28.33
2023-01-23T00:46:01.941Z,27.30
2023-01-23T00:48:28.697Z,27.57
2023-01-23T00:50:55.164Z,26.37
2023-01-23T00:53:22.261Z,28.63
2023-01-23T00:55:50.353Z,28.93
2023-01-23T00:58:17.074Z,30.33
2023-01-23T01:00:43.724Z,30.67
2023-01-23T01:03:10.272Z,29.00
2023-01-23T01:05:36.796Z,29.20
2023-01-23T01:08:03.846Z,28.57
2023-01-23T01:10:32.767Z,29.13
2023-01-23T01:13:02.095Z,28.13
2023-01-23T01:15:29.263Z,26.57
2023-01-23T01:17:55.735Z,26.23
2023-01-23T01:20:23.816Z,29.17
2023-01-23T01:22:50.785Z,29.33
2023-01-23T01:25:17.428Z,27.73
2023-01-23T01:27:43.896Z,28.87
2023-01-23T01:30:12.280Z,28.90
2023-01-23T01:32:40.169Z,28.83
2023-01-23T01:35:07.299Z,26.37
2023-01-23T01:37:34.828Z,27.13
2023-01-23T01:40:01.557Z,25.90
2023-01-23T01:42:28.414Z,25.10
2023-01-23T01:44:59.815Z,26.67
2023-01-23T01:47:26.479Z,27.53
2023-01-23T01:49:56.174Z,25.17
2023-01-23T01:52:23.411Z,25.63
2023-01-23T01:54:57.017Z,25.47
2023-01-23T01:57:35.974Z,25.13
2023-01-23T02:00:08.761Z,24.17
2023-01-23T02:02:38.784Z,24.27
2023-01-23T02:05:14.653Z,25.10
2023-01-23T02:07:55.158Z,24.63
2023-01-23T02:10:23.079Z,23.40
2023-01-23T02:12:51.574Z,25.47
2023-01-23T02:15:23.446Z,25.80
2023-01-23T02:17:51.537Z,25.37
2023-01-23T02:20:22.622Z,26.37
2023-01-23T02:23:12.582Z,25.23
2023-01-23T02:25:53.350Z,26.10
2023-01-23T02:28:20.567Z,25.67
2023-01-23T02:30:48.039Z,25.17
2023-01-23T02:33:21.050Z,24.90
2023-01-23T02:35:48.299Z,25.07
2023-01-23T02:38:15.061Z,26.40
2023-01-23T02:40:42.817Z,26.93
2023-01-23T02:43:13.912Z,26.47
2023-01-23T02:45:40.519Z,26.63
2023-01-23T02:48:08.881Z,24.67
2023-01-23T02:50:35.392Z,26.20
2023-01-23T02:53:02.446Z,26.10
2023-01-23T02:55:33.393Z,25.87
2023-01-23T02:58:19.736Z,26.43
2023-01-23T03:00:47.744Z,25.33
2023-01-23T03:03:15.980Z,25.10
2023-01-23T03:05:42.777Z,23.67
2023-01-23T03:08:09.581Z,25.00
2023-01-23T03:10:36.097Z,24.67
2023-01-23T03:13:04.595Z,27.07
2023-01-23T03:15:31.529Z,25.60
2023-01-23T03:17:58.243Z,25.90
2023-01-23T03:20:26.781Z,24.93
2023-01-23T03:22:54.702Z,23.00
2023-01-23T03:25:21.240Z,24.13
2023-01-23T03:27:48.456Z,24.10
2023-01-23T03:30:16.946Z,24.67
2023-01-23T03:32:44.661Z,22.83
2023-01-23T03:35:14.289Z,23.87
2023-01-23T03:37:40.795Z,23.53
2023-01-23T03:40:26.662Z,23.93
2023-01-23T03:42:53.164Z,24.40
2023-01-23T03:45:19.561Z,24.57
2023-01-23T03:47:46.124Z,24.73
2023-01-23T03:50:22.294Z,24.20
2023-01-23T03:52:49.099Z,24.43
2023-01-23T03:55:15.904Z,24.20
2023-01-23T03:57:42.298Z,24.67
2023-01-23T04:00:09.538Z,24.40
2023-01-23T04:02:36.144Z,23.77
2023-01-23T04:05:02.643Z,23.70
2023-01-23T04:07:29.185Z,24.83
2023-01-23T04:09:56.155Z,24.73
2023-01-23T04:12:22.687Z,23.70
2023-01-23T04:14:49.100Z,23.37
2023-01-23T04:17:16.001Z,23.57
2023-01-23T04:19:42.506Z,24.33
2023-01-23T04:22:10.390Z,24.37
2023-01-23T04:24:36.862Z,23.83
2023-01-23T04:27:04.323Z,23.27
2023-01-23T04:29:31.000Z,24.90
2023-01-23T04:31:57.519Z,24.30
2023-01-23T04:34:23.895Z,25.73
2023-01-23T04:36:50.316Z,27.07
2023-01-23T04:39:16.878Z,24.37
2023-01-23T04:41:43.278Z,25.90
2023-01-23T04:44:22.107Z,26.03
2023-01-23T04:46:50.711Z,25.03
2023-01-23T04:49:18.711Z,25.93
2023-01-23T04:51:48.036Z,25.63
2023-01-23T04:54:14.896Z,25.70
2023-01-23T04:56:41.467Z,25.80
2023-01-23T04:59:09.096Z,25.33
2023-01-23T05:01:36.302Z,25.03
2023-01-23T05:04:02.919Z,26.13
2023-01-23T05:06:29.589Z,25.50
2023-01-23T05:08:55.959Z,26.87
2023-01-23T05:11:22.431Z,25.33
2023-01-23T05:13:48.925Z,26.10
2023-01-23T05:16:15.703Z,26.17
2023-01-23T05:18:42.162Z,24.50
2023-01-23T05:21:08.564Z,26.13
2023-01-23T05:23:35.091Z,26.50
2023-01-23T05:26:01.677Z,26.47
2023-01-23T05:28:28.117Z,26.63
2023-01-23T05:30:54.663Z,30.43
2023-01-23T05:33:21.317Z,27.97
2023-01-23T05:35:48.884Z,30.77
2023-01-23T05:38:15.272Z,28.80
2023-01-23T05:40:41.876Z,28.57
2023-01-23T05:43:13.540Z,29.07
2023-01-23T05:45:39.930Z,27.10
2023-01-23T05:48:06.782Z,30.00
2023-01-23T05:50:34.486Z,29.23
2023-01-23T05:53:01.076Z,29.70
2023-01-23T05:55:29.901Z,29.77
2023-01-23T05:57:56.319Z,28.00
2023-01-23T06:00:24.281Z,29.13
2023-01-23T06:02:50.857Z,29.53
2023-01-23T06:05:17.302Z,29.40
2023-01-23T06:07:44.730Z,28.27
2023-01-23T06:10:11.393Z,28.93
2023-01-23T06:12:37.899Z,30.00
2023-01-23T06:15:04.885Z,29.87
2023-01-23T06:17:31.300Z,28.80
2023-01-23T06:19:59.301Z,30.27
2023-01-23T06:22:25.801Z,31.50
2023-01-23T06:24:52.660Z,30.23
2023-01-23T06:27:19.193Z,27.70
2023-01-23T06:29:58.791Z,31.10
2023-01-23T06:32:26.788Z,29.03
2023-01-23T06:34:53.277Z,31.53
2023-01-23T06:37:19.897Z,30.70
2023-01-23T06:39:46.286Z,30.20
2023-01-23T06:42:12.707Z,29.00
2023-01-23T06:44:47.243Z,30.17
2023-01-23T06:47:13.937Z,32.63
2023-01-23T06:49:40.518Z,29.20
2023-01-23T06:52:07.040Z,30.13
2023-01-23T06:54:34.110Z,29.50
2023-01-23T06:57:00.508Z,28.80
2023-01-23T06:59:26.917Z,29.47
2023-01-23T07:01:53.527Z,29.53
2023-01-23T07:04:20.132Z,30.97
2023-01-23T07:06:46.901Z,29.30
2023-01-23T07:09:13.322Z,28.97
2023-01-23T07:11:40.253Z,28.17
2023-01-23T07:14:06.946Z,29.27
2023-01-23T07:16:35.267Z,29.70
2023-01-23T07:19:02.688Z,29.37
2023-01-23T07:21:29.168Z,30.13
2023-01-23T07:23:55.793Z,29.33
2023-01-23T07:26:22.419Z,29.07
2023-01-23T07:28:48.834Z,29.53
2023-01-23T07:31:15.407Z,30.20
2023-01-23T07:33:44.286Z,29.43
2023-01-23T07:36:13.855Z,30.37
2023-01-23T07:38:40.963Z,31.30
2023-01-23T07:41:07.403Z,31.77
2023-01-23T07:43:35.469Z,30.33
2023-01-23T07:46:02.713Z,28.57
2023-01-23T07:48:29.674Z,31.67
2023-01-23T07:50:56.289Z,28.80
2023-01-23T07:53:22.762Z,30.53
2023-01-23T07:55:49.148Z,30.00
2023-01-23T07:58:15.930Z,29.30
2023-01-23T08:00:42.440Z,30.00
2023-01-23T08:03:08.955Z,29.63
2023-01-23T08:05:35.726Z,29.23
2023-01-23T08:08:13.136Z,31.23
2023-01-23T08:10:40.917Z,30.23
2023-01-23T08:13:07.582Z,29.40
2023-01-23T08:15:33.977Z,28.77
2023-01-23T08:18:08.713Z,30.23
2023-01-23T08:20:36.300Z,29.07
2023-01-23T08:23:02.818Z,29.67
2023-01-23T08:25:29.439Z,30.00
2023-01-23T08:27:56.901Z,27.87
2023-01-23T08:30:23.305Z,28.27
2023-01-23T08:32:49.654Z,29.47
2023-01-23T08:35:16.429Z,29.27
2023-01-23T08:37:45.036Z,28.43
2023-01-23T08:40:11.916Z,29.70
2023-01-23T08:42:38.290Z,28.10
2023-01-23T08:45:05.210Z,30.47
2023-01-23T08:47:36.377Z,27.87
2023-01-23T08:50:06.955Z,30.33
2023-01-23T08:52:35.329Z,29.43
2023-01-23T08:55:02.077Z,29.17
2023-01-23T08:57:28.693Z,69.87
2023-01-23T08:59:59.482Z,60.07
2023-01-23T09:02:25.921Z,33.93
2023-01-23T09:04:52.600Z,32.97
2023-01-23T09:07:18.967Z,32.10
2023-01-23T09:09:45.436Z,31.57
2023-01-23T09:12:11.989Z,33.87
2023-01-23T09:14:38.427Z,36.00
2023-01-23T09:17:06.021Z,33.67
2023-01-23T09:19:32.694Z,31.40
2023-01-23T09:21:59.059Z,31.47
2023-01-23T09:24:25.519Z,30.43
2023-01-23T09:26:51.934Z,33.30
2023-01-23T09:29:18.287Z,30.00
2023-01-23T09:31:44.672Z,29.80
2023-01-23T09:34:11.091Z,35.60
2023-01-23T09:36:43.359Z,29.43
2023-01-23T09:39:10.587Z,31.93
2023-01-23T09:41:39.157Z,31.90
2023-01-23T09:44:07.535Z,54.63
2023-01-23T09:46:57.778Z,33.03
2023-01-23T09:49:58.545Z,31.73
2023-01-23T09:52:31.484Z,30.90
2023-01-23T09:55:13.463Z,29.77
2023-01-23T09:57:47.029Z,30.70
2023-01-23T10:00:27.565Z,31.90
2023-01-23T10:02:54.473Z,29.97
2023-01-23T10:05:27.562Z,29.27
2023-01-23T10:08:19.332Z,30.57
2023-01-23T10:11:05.565Z,29.43
2023-01-23T10:13:48.110Z,31.57
2023-01-23T10:16:50.085Z,33.00
2023-01-23T10:19:32.333Z,27.73
2023-01-23T10:22:14.969Z,29.13
2023-01-23T10:24:52.423Z,28.67
2023-01-23T10:27:24.191Z,32.00
2023-01-23T10:30:03.747Z,29.47
2023-01-23T10:32:32.341Z,29.53
2023-01-23T10:35:06.404Z,28.30
2023-01-23T10:37:53.032Z,28.97
2023-01-23T10:40:40.625Z,26.63
2023-01-23T10:43:17.289Z,27.50
2023-01-23T10:45:46.023Z,26.63
2023-01-23T10:48:49.628Z,27.57
2023-01-23T10:51:45.032Z,26.80
2023-01-23T10:54:31.304Z,25.07
2023-01-23T10:57:22.174Z,26.67
2023-01-23T10:59:57.866Z,26.93
2023-01-23T11:02:32.788Z,27.70
2023-01-23T11:05:01.984Z,26.70
2023-01-23T11:07:33.417Z,25.33
2023-01-23T11:10:05.331Z,26.07
2023-01-23T11:12:34.465Z,26.40
2023-01-23T11:15:22.969Z,26.07
2023-01-23T11:17:51.127Z,26.77
2023-01-23T11:20:31.845Z,27.53
2023-01-23T11:23:07.031Z,28.20
2023-01-23T11:25:40.493Z,27.27
2023-01-23T11:28:27.829Z,27.67
2023-01-23T11:31:15.971Z,31.47
2023-01-23T11:33:52.111Z,30.30
2023-01-23T11:36:18.466Z,27.43
2023-01-23T11:39:05.043Z,29.17
2023-01-23T11:41:34.202Z,28.90
2023-01-23T11:44:10.024Z,28.30
2023-01-23T11:46:46.449Z,27.53
2023-01-23T11:49:15.870Z,28.57
2023-01-23T11:51:49.136Z,27.47
2023-01-23T11:54:34.781Z,29.40
2023-01-23T11:57:03.477Z,28.63
2023-01-23T11:59:53.151Z,29.97
2023-01-23T12:02:46.982Z,28.87
2023-01-23T12:05:32.248Z,28.23
2023-01-23T12:08:36.664Z,28.00
2023-01-23T12:11:14.212Z,29.67
2023-01-23T12:13:48.600Z,28.17
2023-01-23T12:16:30.049Z,29.23
2023-01-23T12:19:21.592Z,29.47
2023-01-23T12:21:56.635Z,29.37
2023-01-23T12:24:53.622Z,29.87
2023-01-23T12:27:27.361Z,30.23
2023-01-23T12:30:15.739Z,28.60
2023-01-23T12:32:52.980Z,29.77
2023-01-23T12:35:37.556Z,30.20
2023-01-23T12:38:09.797Z,31.93
2023-01-23T12:41:12.496Z,32.07
2023-01-23T12:43:49.397Z,32.67
2023-01-23T12:46:42.261Z,32.67
2023-01-23T12:49:29.450Z,31.47
2023-01-23T12:52:11.541Z,32.37
2023-01-23T12:54:43.846Z,31.97
2023-01-23T12:57:10.968Z,30.97
2023-01-23T12:59:54.604Z,31.83
2023-01-23T13:02:40.817Z,32.13
2023-01-23T13:05:19.822Z,32.30
2023-01-23T13:08:01.633Z,32.93
2023-01-23T13:11:12.008Z,32.10
2023-01-23T13:13:40.452Z,33.27
2023-01-23T13:16:18.594Z,34.90
2023-01-23T13:19:12.037Z,33.83
2023-01-23T13:21:57.294Z,32.83
2023-01-23T13:24:48.639Z,33.83
2023-01-23T13:27:40.026Z,35.70
2023-01-23T13:30:22.348Z,34.60
2023-01-23T13:32:50.827Z,36.33
2023-01-23T13:35:39.993Z,36.40
2023-01-23T13:38:29.519Z,37.23
2023-01-23T13:41:05.315Z,38.53
2023-01-23T13:43:50.198Z,35.43
2023-01-23T13:46:40.560Z,37.77
2023-01-23T14:27:36.758Z,38.27
2023-01-23T14:30:17.095Z,38.43
2023-01-23T14:32:45.859Z,40.53
2023-01-23T14:35:23.942Z,41.50
2023-01-23T14:37:52.598Z,39.60
2023-01-23T14:40:27.113Z,40.23
2023-01-23T14:43:07.768Z,38.53
2023-01-23T14:45:35.619Z,41.03
2023-01-23T14:48:06.706Z,40.73
2023-01-23T14:50:34.207Z,40.50
2023-01-23T14:53:05.970Z,40.67
2023-01-23T14:55:36.826Z,39.40
2023-01-23T14:58:03.872Z,41.17
2023-01-23T15:00:34.319Z,39.83
2023-01-23T15:03:04.489Z,40.87
2023-01-23T15:05:32.974Z,39.23
2023-01-23T15:08:03.512Z,40.70
2023-01-23T15:10:32.398Z,41.03
2023-01-23T15:13:22.669Z,40.73
2023-01-23T15:15:56.384Z,39.20
2023-01-23T15:18:24.881Z,39.27
2023-01-23T15:20:59.070Z,38.73
2023-01-23T15:23:31.312Z,40.60
2023-01-23T15:26:25.577Z,41.00
2023-01-23T15:28:55.106Z,41.57
2023-01-23T15:31:29.758Z,40.00
2023-01-23T15:34:10.021Z,38.70
2023-01-23T15:36:36.479Z,39.90
2023-01-23T15:39:03.557Z,39.23
2023-01-23T15:42:00.496Z,39.90
2023-01-23T15:44:31.572Z,41.73
2023-01-23T15:47:01.702Z,39.60
2023-01-23T15:49:28.959Z,40.67
2023-01-23T15:52:00.138Z,41.40
2023-01-23T15:54:31.573Z,41.57
2023-01-23T15:57:06.955Z,41.73
2023-01-23T15:59:35.574Z,41.33
2023-01-23T16:02:02.146Z,42.03
2023-01-23T16:04:32.269Z,39.17
2023-01-23T16:07:06.792Z,40.97
2023-01-23T16:09:37.013Z,41.60
2023-01-23T16:12:10.522Z,42.07
2023-01-23T16:14:36.923Z,40.47
2023-01-23T16:17:15.869Z,40.30
2023-01-23T16:19:43.417Z,41.47
2023-01-23T16:22:13.992Z,40.67
2023-01-23T16:24:41.559Z,42.53
2023-01-23T16:27:27.805Z,41.47
2023-01-23T16:29:55.303Z,39.63
2023-01-23T16:32:22.156Z,39.33
2023-01-23T16:34:51.487Z,40.87
2023-01-23T16:37:18.694Z,38.13
2023-01-23T16:39:46.816Z,39.63
2023-01-23T16:42:19.990Z,40.23
2023-01-23T16:44:47.816Z,38.00
2023-01-23T16:47:15.537Z,39.00
2023-01-23T16:49:52.196Z,39.30
2023-01-23T16:52:24.411Z,38.60
2023-01-23T16:54:52.127Z,39.00
2023-01-23T16:57:20.366Z,40.63
2023-01-23T16:59:48.198Z,38.97
2023-01-23T17:02:25.339Z,38.47
2023-01-23T17:04:55.378Z,40.53
2023-01-23T17:07:22.094Z,41.33
2023-01-23T17:09:49.291Z,40.10
2023-01-23T17:12:22.117Z,40.67
2023-01-23T17:14:49.155Z,43.97
2023-01-23T17:17:19.760Z,41.90
2023-01-23T17:19:46.501Z,39.40
2023-01-23T17:22:34.788Z,39.17
2023-01-23T17:25:01.148Z,42.07
2023-01-23T17:27:27.535Z,40.23
2023-01-23T17:29:54.640Z,41.43
2023-01-23T17:32:29.827Z,41.27
2023-01-23T17:34:57.646Z,41.03
2023-01-23T17:37:24.236Z,40.50
2023-01-23T17:39:50.992Z,41.07
2023-01-23T17:42:22.169Z,41.53
2023-01-23T17:44:49.449Z,40.90
2023-01-23T17:47:17.508Z,41.63
2023-01-23T17:49:46.766Z,40.70
2023-01-23T17:52:13.197Z,40.40
2023-01-23T17:54:39.578Z,41.23
2023-01-23T17:57:05.961Z,40.87
2023-01-23T17:59:32.337Z,40.57
2023-01-23T18:02:00.997Z,39.30
2023-01-23T18:04:27.335Z,39.60
2023-01-23T18:06:53.897Z,42.20
2023-01-23T18:09:21.263Z,41.90
2023-01-23T18:11:52.667Z,39.90
2023-01-23T18:14:19.061Z,39.87
2023-01-23T18:16:45.932Z,39.40
2023-01-23T18:19:21.117Z,38.83
2023-01-23T18:21:51.327Z,38.33
2023-01-23T18:24:27.409Z,38.17
2023-01-23T18:26:59.809Z,36.77
2023-01-23T18:29:57.993Z,40.07
2023-01-23T18:32:37.261Z,39.17
2023-01-23T18:35:25.778Z,39.70
2023-01-23T18:38:15.174Z,39.23
2023-01-23T18:40:47.872Z,38.23
2023-01-23T18:43:34.798Z,40.27
2023-01-23T18:46:01.791Z,38.60
2023-01-23T18:48:29.410Z,41.37
2023-01-23T18:51:34.940Z,42.37
2023-01-23T18:54:29.884Z,39.70
2023-01-23T18:57:02.348Z,38.37
2023-01-23T18:59:28.864Z,38.47
2023-01-23T19:02:21.870Z,38.63
2023-01-23T19:05:19.319Z,40.10
2023-01-23T19:07:46.814Z,40.77
2023-01-23T19:10:18.226Z,39.90
2023-01-23T19:13:07.648Z,40.57
2023-01-23T19:15:41.798Z,39.63
2023-01-23T19:18:50.543Z,41.57
2023-01-23T19:21:26.714Z,39.20
2023-01-23T19:24:06.777Z,37.73
2023-01-23T19:26:35.480Z,38.90
2023-01-23T19:29:19.957Z,39.80
2023-01-23T19:32:03.705Z,39.67
2023-01-23T19:34:31.644Z,39.83
2023-01-23T19:36:58.841Z,41.07
2023-01-23T19:39:25.652Z,41.07
2023-01-23T19:41:53.569Z,42.70
2023-01-23T19:44:24.968Z,41.37
2023-01-23T19:46:52.335Z,41.27
2023-01-23T19:49:18.935Z,41.40
2023-01-23T19:51:45.704Z,44.13
2023-01-23T19:54:13.424Z,42.37
2023-01-23T19:56:41.102Z,42.33
2023-01-23T19:59:07.596Z,44.20
2023-01-23T20:01:38.439Z,42.40
2023-01-23T20:04:12.523Z,41.50
2023-01-23T20:06:40.752Z,42.27
2023-01-23T20:09:08.401Z,41.27
2023-01-23T20:11:36.425Z,42.87
2023-01-23T20:14:03.728Z,42.87
2023-01-23T20:16:30.264Z,42.70
2023-01-23T20:18:56.877Z,43.00
2023-01-23T20:21:25.170Z,43.20
2023-01-23T20:23:52.737Z,41.40
2023-01-23T20:26:21.349Z,44.60
2023-01-23T20:28:55.759Z,44.20
2023-01-23T20:31:23.135Z,42.63
2023-01-23T20:33:50.191Z,44.37
2023-01-23T20:36:16.889Z,43.97
2023-01-23T20:38:43.479Z,43.37
2023-01-23T20:41:15.553Z,42.20
2023-01-23T20:43:45.506Z,43.80
2023-01-23T20:46:14.123Z,44.20
2023-01-23T20:48:44.280Z,44.33
2023-01-23T20:51:13.220Z,43.47
2023-01-23T20:53:40.194Z,43.03
2023-01-23T20:56:13.664Z,43.07
2023-01-23T20:59:01.864Z,44.60
2023-01-23T21:01:58.655Z,43.70
2023-01-23T21:04:33.932Z,43.60
2023-01-23T21:07:01.306Z,44.40
2023-01-23T21:09:27.909Z,43.90
2023-01-23T21:11:55.062Z,46.30
2023-01-23T21:14:22.245Z,46.50
2023-01-23T21:16:48.880Z,44.40
2023-01-23T21:19:15.816Z,43.90
2023-01-23T21:21:43.143Z,45.10
2023-01-23T21:24:09.956Z,45.10
2023-01-23T21:26:36.779Z,44.50
2023-01-23T21:29:04.179Z,46.87
2023-01-23T21:31:33.796Z,45.20
2023-01-23T21:34:07.777Z,45.67
2023-01-23T21:36:36.392Z,45.23
2023-01-23T21:39:03.876Z,42.93
2023-01-23T21:41:30.728Z,44.97
2023-01-23T21:43:57.297Z,43.80
2023-01-23T21:46:23.918Z,44.53
2023-01-23T21:48:51.923Z,46.07
2023-01-23T21:51:23.811Z,46.83
2023-01-23T21:53:50.458Z,45.97
2023-01-23T21:56:19.934Z,43.93
2023-01-23T21:58:47.203Z,44.07
2023-01-23T22:01:39.547Z,45.17
2023-01-23T22:04:11.226Z,44.17
2023-01-23T22:06:40.436Z,43.53
2023-01-23T22:09:07.666Z,43.73
2023-01-23T22:11:34.356Z,44.83
2023-01-23T22:14:01.295Z,45.67
2023-01-23T22:16:46.473Z,43.00
2023-01-23T22:19:15.326Z,44.20
2023-01-23T22:21:42.421Z,42.87
2023-01-23T22:24:09.112Z,43.03
2023-01-23T22:26:35.793Z,44.43
2023-01-23T22:29:02.188Z,45.03
2023-01-23T22:31:31.943Z,45.63
2023-01-23T22:33:58.507Z,44.47
2023-01-23T22:36:25.135Z,45.30
